createdAt,value
2022-08-29T00:00:18.238Z,92.23
2022-08-29T00:02:50.888Z,91.57
2022-08-29T00:05:24.955Z,91.79
2022-08-29T00:07:52.101Z,92.44
2022-08-29T00:10:18.649Z,92.85
2022-08-29T00:12:45.152Z,92.42
2022-08-29T00:15:12.601Z,92.55
2022-08-29T00:17:39.053Z,92.25
2022-08-29T00:20:08.590Z,91.63
2022-08-29T00:22:35.183Z,91.49
2022-08-29T00:25:04.751Z,91.72
2022-08-29T00:27:34.773Z,92.01
2022-08-29T00:30:01.785Z,91.33
2022-08-29T00:32:34.819Z,90.88
2022-08-29T00:35:03.513Z,90.68
2022-08-29T00:37:31.022Z,91.66
2022-08-29T00:39:57.487Z,91.29
2022-08-29T00:42:24.893Z,91.03
2022-08-29T00:44:51.951Z,90.98
2022-08-29T00:47:23.018Z,90.77
2022-08-29T00:49:53.047Z,91.74
2022-08-29T00:52:28.470Z,90.91
2022-08-29T00:54:56.159Z,90.13
2022-08-29T00:57:24.630Z,89.99
2022-08-29T00:59:51.968Z,90.46
2022-08-29T01:02:19.204Z,90.25
2022-08-29T01:04:46.290Z,90.33
2022-08-29T01:07:12.890Z,90.49
2022-08-29T01:09:42.440Z,90.63
2022-08-29T01:12:17.858Z,90.24
2022-08-29T01:14:53.795Z,90.67
2022-08-29T01:17:35.066Z,91.52
2022-08-29T01:20:19.312Z,91.85
2022-08-29T01:22:48.772Z,91.32
2022-08-29T01:25:22.634Z,92.18
2022-08-29T01:27:59.405Z,92.08
2022-08-29T01:30:25.882Z,92.71
2022-08-29T01:32:52.543Z,93.77
2022-08-29T01:35:19.033Z,92.31
2022-08-29T01:37:45.591Z,91.97
2022-08-29T01:40:13.282Z,91.16
2022-08-29T01:42:39.981Z,91.77
2022-08-29T01:45:09.738Z,92.08
2022-08-29T01:47:38.722Z,91.99
2022-08-29T01:50:12.702Z,91.99
2022-08-29T01:52:39.295Z,92.63
2022-08-29T01:55:06.040Z,93.19
2022-08-29T01:57:32.566Z,92.37
2022-08-29T01:59:59.386Z,92.99
2022-08-29T02:02:29.111Z,93.44
2022-08-29T02:04:58.545Z,92.43
2022-08-29T02:07:26.357Z,93.31
2022-08-29T02:09:53.668Z,93.63
2022-08-29T02:12:20.799Z,93.74
2022-08-29T02:14:47.605Z,94.02
2022-08-29T02:17:14.233Z,94.07
2022-08-29T02:19:41.530Z,93.43
2022-08-29T02:22:09.596Z,92.47
2022-08-29T02:24:36.507Z,93.21
2022-08-29T02:27:03.962Z,94.17
2022-08-29T02:29:30.819Z,94.43
2022-08-29T02:32:11.256Z,95.02
2022-08-29T02:34:38.129Z,94.69
2022-08-29T02:37:05.904Z,94.37
2022-08-29T02:39:32.465Z,94.12
2022-08-29T02:41:58.870Z,93.56
2022-08-29T02:44:25.265Z,94.01
2022-08-29T02:46:51.757Z,93.70
2022-08-29T02:49:18.300Z,92.83
2022-08-29T02:51:45.090Z,92.80
2022-08-29T02:54:12.531Z,93.19
2022-08-29T02:56:39.906Z,93.21
2022-08-29T02:59:08.304Z,93.45
2022-08-29T03:01:36.224Z,93.59
2022-08-29T03:04:03.167Z,92.95
2022-08-29T03:06:29.653Z,92.84
2022-08-29T03:08:56.253Z,92.57
2022-08-29T03:11:23.985Z,91.80
2022-08-29T03:13:50.477Z,91.40
2022-08-29T03:16:18.242Z,90.97
2022-08-29T03:18:44.678Z,90.87
2022-08-29T03:21:19.660Z,91.63
2022-08-29T03:23:46.689Z,92.46
2022-08-29T03:26:13.153Z,93.19
2022-08-29T03:28:39.568Z,93.11
2022-08-29T03:31:06.748Z,92.80
2022-08-29T03:33:33.517Z,92.60
2022-08-29T03:35:59.989Z,93.04
2022-08-29T03:38:26.596Z,92.86
2022-08-29T03:40:53.430Z,92.70
2022-08-29T03:43:24.538Z,92.89
2022-08-29T03:45:51.364Z,92.26
2022-08-29T03:48:17.880Z,92.70
2022-08-29T03:50:44.397Z,92.43
2022-08-29T03:53:10.813Z,92.62
2022-08-29T03:55:38.253Z,91.82
2022-08-29T03:58:04.928Z,92.16
2022-08-29T04:00:31.582Z,92.81
2022-08-29T04:02:59.045Z,93.50
2022-08-29T04:05:25.644Z,93.34
2022-08-29T04:07:55.471Z,92.71
2022-08-29T04:10:30.839Z,92.69
2022-08-29T04:12:57.865Z,93.10
2022-08-29T04:15:26.324Z,92.43
2022-08-29T04:17:55.229Z,92.75
2022-08-29T04:20:25.704Z,93.39
2022-08-29T04:22:54.439Z,93.63
2022-08-29T04:25:22.346Z,94.29
2022-08-29T04:27:49.480Z,93.79
2022-08-29T04:30:22.554Z,92.42
2022-08-29T04:32:50.108Z,93.89
2022-08-29T04:35:16.966Z,94.13
2022-08-29T04:37:44.396Z,93.83
2022-08-29T04:40:15.700Z,94.96
2022-08-29T04:42:42.818Z,94.96
2022-08-29T04:45:14.370Z,94.45
2022-08-29T04:47:42.142Z,95.00
2022-08-29T04:50:12.136Z,95.61
2022-08-29T04:52:39.099Z,95.09
2022-08-29T04:55:07.601Z,95.62
2022-08-29T04:57:35.587Z,95.35
2022-08-29T05:00:02.879Z,95.95
2022-08-29T05:02:29.347Z,95.08
2022-08-29T05:04:56.702Z,93.50
2022-08-29T05:07:25.772Z,93.29
2022-08-29T05:10:01.303Z,93.82
2022-08-29T05:12:29.490Z,95.08
2022-08-29T05:14:56.545Z,95.54
2022-08-29T05:17:23.726Z,95.38
2022-08-29T05:19:50.481Z,96.38
2022-08-29T05:22:18.402Z,97.41
2022-08-29T05:24:44.884Z,96.44
2022-08-29T05:27:16.758Z,98.53
2022-08-29T05:29:45.183Z,99.05
2022-08-29T05:32:14.567Z,100.00
2022-08-29T05:34:42.767Z,100.00
2022-08-29T05:37:12.893Z,100.00
2022-08-29T05:39:40.138Z,100.00
2022-08-29T05:42:07.673Z,100.00
2022-08-29T05:44:35.708Z,100.00
2022-08-29T05:47:04.383Z,100.00
2022-08-29T05:49:30.851Z,100.00
2022-08-29T05:51:57.466Z,100.00
2022-08-29T05:54:24.840Z,100.00
2022-08-29T05:56:56.584Z,100.00
2022-08-29T05:59:22.998Z,100.00
2022-08-29T06:01:49.500Z,99.91
2022-08-29T06:04:16.152Z,98.26
2022-08-29T06:06:42.750Z,96.87
2022-08-29T06:09:09.306Z,97.13
2022-08-29T06:11:35.725Z,97.44
2022-08-29T06:14:02.184Z,98.22
2022-08-29T06:16:29.876Z,98.13
2022-08-29T06:18:56.878Z,98.32
2022-08-29T06:21:23.349Z,98.83
2022-08-29T06:23:50.178Z,98.56
2022-08-29T06:26:17.096Z,98.63
2022-08-29T06:28:45.930Z,99.20
2022-08-29T06:31:16.775Z,98.91
2022-08-29T06:33:43.640Z,99.44
2022-08-29T06:36:11.030Z,98.95
2022-08-29T06:38:37.450Z,97.99
2022-08-29T06:41:10.177Z,97.37
2022-08-29T06:43:37.509Z,97.85
2022-08-29T06:46:04.295Z,97.45
2022-08-29T06:48:31.082Z,97.38
2022-08-29T06:51:00.127Z,97.14
2022-08-29T06:53:31.985Z,97.35
2022-08-29T06:56:06.872Z,97.33
2022-08-29T06:58:38.204Z,97.40
2022-08-29T07:01:12.870Z,97.54
2022-08-29T07:03:41.014Z,97.55
2022-08-29T07:06:08.533Z,97.31
2022-08-29T07:08:35.814Z,97.25
2022-08-29T07:11:02.747Z,95.91
2022-08-29T07:13:29.209Z,95.72
2022-08-29T07:15:55.692Z,96.78
2022-08-29T07:18:22.125Z,96.34
2022-08-29T07:20:49.188Z,96.31
2022-08-29T07:23:16.221Z,95.50
2022-08-29T07:25:42.814Z,96.01
2022-08-29T07:28:09.226Z,96.13
2022-08-29T07:30:37.406Z,96.71
2022-08-29T07:33:03.885Z,95.96
2022-08-29T07:35:31.018Z,96.14
2022-08-29T07:38:03.540Z,96.30
2022-08-29T07:40:30.429Z,96.09
2022-08-29T07:42:56.905Z,95.68
2022-08-29T07:45:23.369Z,95.87
2022-08-29T07:47:49.796Z,94.72
2022-08-29T07:50:17.027Z,94.33
2022-08-29T07:52:43.598Z,94.32
2022-08-29T07:55:10.234Z,93.93
2022-08-29T07:57:36.949Z,93.75
2022-08-29T08:00:09.824Z,93.21
2022-08-29T08:02:36.336Z,92.71
2022-08-29T08:05:02.825Z,91.88
2022-08-29T08:07:40.430Z,91.40
2022-08-29T08:10:07.970Z,90.57
2022-08-29T08:12:34.407Z,88.80
2022-08-29T08:15:00.938Z,89.49
2022-08-29T08:17:27.439Z,86.66
2022-08-29T08:19:53.847Z,87.02
2022-08-29T08:22:20.250Z,86.07
2022-08-29T08:24:48.436Z,85.03
2022-08-29T08:27:14.841Z,81.58
2022-08-29T08:29:41.246Z,81.92
2022-08-29T08:32:07.653Z,82.50
2022-08-29T08:34:35.735Z,82.57
2022-08-29T08:37:07.420Z,82.12
2022-08-29T08:39:34.385Z,82.82
2022-08-29T08:42:05.736Z,82.06
2022-08-29T08:45:00.887Z,81.94
2022-08-29T08:47:37.556Z,80.97
2022-08-29T08:50:07.722Z,81.07
2022-08-29T08:52:44.168Z,80.57
2022-08-29T08:55:29.097Z,80.99
2022-08-29T08:58:10.330Z,79.17
2022-08-29T09:00:44.129Z,80.03
2022-08-29T09:03:41.642Z,78.43
2022-08-29T09:06:22.379Z,80.04
2022-08-29T09:08:57.182Z,77.74
2022-08-29T09:11:38.578Z,75.09
2022-08-29T09:14:23.858Z,73.80
2022-08-29T09:16:55.917Z,71.69
2022-08-29T09:19:22.628Z,72.05
2022-08-29T09:21:55.413Z,71.89
2022-08-29T09:24:44.183Z,70.43
2022-08-29T09:27:23.153Z,70.61
2022-08-29T09:30:10.846Z,71.99
2022-08-29T09:32:58.272Z,70.29
2022-08-29T09:35:34.655Z,69.73
2022-08-29T09:38:06.881Z,68.46
2022-08-29T09:40:54.437Z,67.42
2022-08-29T09:43:43.861Z,66.70
2022-08-29T09:46:19.104Z,66.21
2022-08-29T09:48:52.056Z,66.32
2022-08-29T09:51:24.473Z,67.97
2022-08-29T09:54:10.272Z,65.94
2022-08-29T09:56:40.217Z,67.06
2022-08-29T09:59:22.469Z,67.21
2022-08-29T10:01:49.337Z,65.68
2022-08-29T10:04:37.466Z,64.39
2022-08-29T10:07:28.084Z,63.30
2022-08-29T10:09:54.881Z,62.70
2022-08-29T10:12:33.041Z,62.89
2022-08-29T10:15:04.693Z,62.85
2022-08-29T10:18:19.833Z,61.20
2022-08-29T10:21:07.906Z,59.36
2022-08-29T10:23:45.563Z,62.90
2022-08-29T10:26:28.132Z,59.91
2022-08-29T10:29:31.615Z,58.87
2022-08-29T10:32:05.099Z,58.73
2022-08-29T10:34:31.485Z,57.93
2022-08-29T10:37:09.276Z,59.66
2022-08-29T10:40:02.163Z,58.28
2022-08-29T10:42:31.827Z,56.96
2022-08-29T10:45:15.097Z,56.68
2022-08-29T10:47:52.363Z,55.13
2022-08-29T10:50:48.078Z,55.88
2022-08-29T10:53:38.382Z,56.06
2022-08-29T10:56:16.063Z,56.13
2022-08-29T10:59:18.487Z,58.19
2022-08-29T11:02:05.759Z,56.33
2022-08-29T11:04:45.410Z,55.59
2022-08-29T11:07:16.288Z,54.62
2022-08-29T11:09:47.400Z,55.36
2022-08-29T11:12:33.234Z,55.11
2022-08-29T11:15:15.341Z,53.99
2022-08-29T11:17:44.427Z,55.47
2022-08-29T11:20:21.564Z,55.73
2022-08-29T11:22:58.175Z,54.47
2022-08-29T11:25:24.738Z,56.83
2022-08-29T11:28:04.073Z,54.18
2022-08-29T11:30:51.966Z,52.90
2022-08-29T11:33:37.072Z,54.64
2022-08-29T11:36:12.534Z,52.30
2022-08-29T11:39:03.645Z,53.92
2022-08-29T11:41:35.425Z,55.81
2022-08-29T11:44:23.800Z,55.38
2022-08-29T11:46:53.501Z,56.60
2022-08-29T11:49:36.973Z,55.30
2022-08-29T11:52:10.823Z,53.37
2022-08-29T11:54:37.398Z,52.92
2022-08-29T11:57:04.065Z,53.43
2022-08-29T11:59:48.907Z,54.68
2022-08-29T12:02:27.555Z,51.41
2022-08-29T12:05:07.170Z,54.53
2022-08-29T12:07:44.437Z,53.76
2022-08-29T12:10:33.059Z,55.74
2022-08-29T12:13:01.813Z,53.35
2022-08-29T12:15:34.400Z,52.50
2022-08-29T12:18:04.122Z,54.45
2022-08-29T12:20:30.803Z,55.05
2022-08-29T12:23:06.045Z,55.59
2022-08-29T12:26:09.632Z,54.54
2022-08-29T12:28:58.077Z,51.67
2022-08-29T12:31:36.871Z,51.75
2022-08-29T12:34:18.725Z,51.74
2022-08-29T12:37:11.675Z,53.16
2022-08-29T12:39:59.251Z,54.35
2022-08-29T12:42:58.714Z,53.18
2022-08-29T12:45:28.066Z,50.83
2022-08-29T12:47:58.802Z,51.61
2022-08-29T12:50:35.878Z,50.84
2022-08-29T12:53:07.642Z,51.20
2022-08-29T12:55:43.476Z,52.69
2022-08-29T12:58:12.535Z,53.71
2022-08-29T13:00:40.062Z,53.19
2022-08-29T13:03:19.211Z,54.09
2022-08-29T13:05:46.330Z,53.20
2022-08-29T13:08:27.767Z,51.31
2022-08-29T13:11:04.325Z,52.43
2022-08-29T13:13:30.854Z,53.44
2022-08-29T13:16:01.449Z,52.39
2022-08-29T13:18:30.013Z,51.86
2022-08-29T13:21:19.342Z,52.31
2022-08-29T13:23:57.603Z,52.11
2022-08-29T13:26:27.651Z,53.82
2022-08-29T13:29:15.174Z,54.11
2022-08-29T13:31:42.268Z,52.68
2022-08-29T13:34:19.353Z,52.65
2022-08-29T13:36:45.716Z,51.76
2022-08-29T13:39:18.940Z,53.98
2022-08-29T13:41:49.200Z,50.66
2022-08-29T13:44:30.212Z,51.67
2022-08-29T13:47:00.843Z,51.29
2022-08-29T13:49:32.760Z,51.76
2022-08-29T13:52:00.353Z,51.31
2022-08-29T13:54:30.343Z,50.14
2022-08-29T13:56:58.129Z,50.61
2022-08-29T13:59:27.506Z,50.55
2022-08-29T14:02:10.975Z,49.16
2022-08-29T14:04:39.870Z,51.03
2022-08-29T14:07:09.481Z,49.73
2022-08-29T14:09:39.371Z,50.16
2022-08-29T14:12:07.166Z,50.36
2022-08-29T14:14:33.694Z,50.24
2022-08-29T14:17:00.650Z,50.21
2022-08-29T14:19:28.765Z,50.87
2022-08-29T14:21:55.726Z,49.73
2022-08-29T14:24:22.718Z,49.10
2022-08-29T14:27:01.995Z,47.92
2022-08-29T14:29:33.184Z,48.22
2022-08-29T14:32:03.006Z,47.62
2022-08-29T14:34:32.420Z,49.25
2022-08-29T14:36:59.860Z,48.10
2022-08-29T14:39:26.615Z,48.00
2022-08-29T14:41:54.124Z,47.61
2022-08-29T14:44:21.829Z,50.02
2022-08-29T14:46:48.592Z,48.07
2022-08-29T14:49:15.214Z,47.81
2022-08-29T14:51:42.047Z,48.54
2022-08-29T14:54:08.515Z,47.69
2022-08-29T14:56:48.295Z,48.74
2022-08-29T14:59:16.142Z,48.82
2022-08-29T15:01:42.777Z,49.63
2022-08-29T15:04:09.290Z,48.83
2022-08-29T15:06:37.539Z,49.31
2022-08-29T15:09:04.095Z,48.79
2022-08-29T15:11:31.323Z,47.49
2022-08-29T15:14:03.532Z,48.07
2022-08-29T15:16:31.765Z,47.89
2022-08-29T15:21:44.761Z,48.13
2022-08-29T15:24:11.204Z,46.79
2022-08-29T15:26:37.658Z,47.27
2022-08-29T15:29:04.486Z,46.70
2022-08-29T15:31:31.130Z,47.33
2022-08-29T15:33:58.139Z,47.53
2022-08-29T15:36:24.718Z,48.39
2022-08-29T15:38:51.167Z,49.78
2022-08-29T15:41:17.662Z,49.29
2022-08-29T15:43:44.080Z,50.32
2022-08-29T15:46:11.035Z,49.28
2022-08-29T15:48:37.499Z,49.49
2022-08-29T15:51:04.466Z,49.65
2022-08-29T15:53:30.958Z,49.77
2022-08-29T15:55:57.422Z,49.64
2022-08-29T15:58:23.813Z,48.55
2022-08-29T16:00:50.312Z,49.19
2022-08-29T16:03:16.770Z,48.49
2022-08-29T16:05:43.743Z,48.91
2022-08-29T16:08:16.492Z,49.42
2022-08-29T16:10:44.909Z,49.44
2022-08-29T16:13:11.732Z,51.13
2022-08-29T16:15:38.687Z,50.77
2022-08-29T16:18:06.633Z,50.84
2022-08-29T16:20:34.069Z,49.43
2022-08-29T16:23:01.645Z,50.18
2022-08-29T16:25:30.988Z,50.53
2022-08-29T16:28:00.116Z,51.23
2022-08-29T16:30:27.110Z,51.64
2022-08-29T16:32:54.712Z,51.77
2022-08-29T16:35:21.184Z,51.81
2022-08-29T16:38:02.670Z,52.75
2022-08-29T16:40:29.481Z,52.71
2022-08-29T16:42:56.476Z,52.47
2022-08-29T16:45:23.470Z,52.22
2022-08-29T16:47:52.148Z,52.59
2022-08-29T16:50:22.558Z,52.79
2022-08-29T16:52:49.135Z,52.65
2022-08-29T16:55:15.596Z,53.15
2022-08-29T16:58:01.977Z,52.44
2022-08-29T17:00:28.402Z,52.82
2022-08-29T17:02:54.904Z,53.31
2022-08-29T17:05:21.357Z,53.46
2022-08-29T17:07:49.675Z,53.11
2022-08-29T17:10:16.203Z,53.30
2022-08-29T17:12:42.571Z,53.77
2022-08-29T17:15:09.153Z,54.41
2022-08-29T17:17:35.695Z,54.24
2022-08-29T17:20:02.205Z,54.96
2022-08-29T17:22:28.676Z,56.14
2022-08-29T17:24:55.146Z,56.17
2022-08-29T17:27:22.299Z,56.63
2022-08-29T17:29:50.405Z,57.11
2022-08-29T17:32:17.115Z,57.15
2022-08-29T17:34:43.990Z,57.57
2022-08-29T17:37:10.995Z,58.99
2022-08-29T17:39:40.005Z,60.26
2022-08-29T17:42:06.903Z,62.52
2022-08-29T17:44:34.371Z,64.27
2022-08-29T17:47:01.009Z,64.99
2022-08-29T17:49:28.283Z,65.18
2022-08-29T17:51:55.200Z,66.19
2022-08-29T17:54:23.926Z,65.73
2022-08-29T17:56:56.579Z,66.65
2022-08-29T17:59:27.137Z,64.81
2022-08-29T18:01:54.635Z,66.38
2022-08-29T18:04:22.205Z,67.51
2022-08-29T18:06:49.262Z,67.36
2022-08-29T18:09:16.595Z,68.46
2022-08-29T18:11:46.505Z,68.59
2022-08-29T18:14:13.067Z,69.59
2022-08-29T18:16:39.553Z,70.06
2022-08-29T18:19:06.775Z,70.89
2022-08-29T18:21:33.561Z,70.42
2022-08-29T18:24:00.121Z,71.28
2022-08-29T18:26:26.762Z,72.01
2022-08-29T18:28:54.605Z,71.43
2022-08-29T18:31:21.730Z,71.55
2022-08-29T18:34:03.895Z,72.27
2022-08-29T18:36:31.900Z,73.33
2022-08-29T18:38:59.001Z,73.32
2022-08-29T18:41:25.681Z,73.92
2022-08-29T18:43:52.088Z,74.37
2022-08-29T18:46:18.989Z,75.02
2022-08-29T18:48:46.267Z,75.03
2022-08-29T18:51:13.501Z,73.67
2022-08-29T18:53:40.257Z,73.14
2022-08-29T18:56:07.209Z,74.08
2022-08-29T18:58:35.124Z,73.83
2022-08-29T19:01:28.023Z,74.35
2022-08-29T19:04:00.999Z,73.28
2022-08-29T19:06:28.166Z,75.44
2022-08-29T19:08:56.475Z,74.87
2022-08-29T19:11:23.350Z,75.29
2022-08-29T19:13:52.386Z,76.14
2022-08-29T19:16:20.369Z,77.15
2022-08-29T19:18:46.922Z,76.99
2022-08-29T19:21:14.279Z,77.37
2022-08-29T19:23:52.118Z,77.50
2022-08-29T19:26:24.500Z,78.64
2022-08-29T19:28:53.093Z,79.03
2022-08-29T19:31:22.744Z,78.51
2022-08-29T19:33:49.323Z,78.54
2022-08-29T19:36:17.440Z,79.00
2022-08-29T19:38:44.014Z,79.01
2022-08-29T19:41:11.039Z,79.24
2022-08-29T19:43:40.745Z,78.54
2022-08-29T19:46:16.430Z,77.57
2022-08-29T19:48:43.247Z,78.00
2022-08-29T19:51:15.113Z,77.90
2022-08-29T19:53:42.057Z,79.00
2022-08-29T19:56:09.813Z,79.83
2022-08-29T19:58:37.085Z,79.32
2022-08-29T20:01:06.961Z,79.81
2022-08-29T20:03:34.066Z,80.97
2022-08-29T20:06:05.584Z,81.22
2022-08-29T20:08:37.794Z,80.51
2022-08-29T20:11:04.483Z,81.04
2022-08-29T20:13:35.828Z,80.20
2022-08-29T20:16:09.088Z,79.79
2022-08-29T20:18:35.582Z,77.18
2022-08-29T20:21:02.017Z,76.04
2022-08-29T20:23:30.121Z,78.35
2022-08-29T20:25:58.038Z,78.44
2022-08-29T20:28:24.498Z,79.37
2022-08-29T20:30:51.431Z,78.38
2022-08-29T20:33:18.700Z,79.51
2022-08-29T20:36:04.338Z,79.36
2022-08-29T20:38:31.159Z,78.53
2022-08-29T20:40:57.561Z,78.03
2022-08-29T20:43:23.967Z,77.98
2022-08-29T20:45:50.452Z,77.74
2022-08-29T20:48:17.076Z,78.48
2022-08-29T20:50:43.574Z,79.24
2022-08-29T20:53:12.787Z,77.90
2022-08-29T20:55:59.246Z,78.85
2022-08-29T20:58:25.835Z,79.40
2022-08-29T21:00:55.967Z,79.70
2022-08-29T21:03:41.166Z,80.47
2022-08-29T21:06:08.154Z,79.37
2022-08-29T21:08:36.300Z,79.41
2022-08-29T21:11:05.145Z,79.24
2022-08-29T21:13:31.975Z,80.14
2022-08-29T21:15:58.892Z,79.75
2022-08-29T21:18:25.823Z,79.07
2022-08-29T21:20:54.237Z,78.59
2022-08-29T21:23:23.083Z,77.58
2022-08-29T21:25:54.375Z,78.45
2022-08-29T21:28:21.909Z,79.19
2022-08-29T21:30:49.286Z,78.37
2022-08-29T21:33:16.022Z,79.25
2022-08-29T21:35:42.568Z,79.08
2022-08-29T21:38:09.555Z,80.18
2022-08-29T21:40:36.807Z,80.60
2022-08-29T21:43:16.701Z,80.68
2022-08-29T21:45:43.283Z,80.96
2022-08-29T21:48:09.689Z,80.35
2022-08-29T21:50:38.239Z,79.07
2022-08-29T21:53:05.642Z,80.90
2022-08-29T21:55:32.959Z,81.36
2022-08-29T21:58:00.585Z,81.83
2022-08-29T22:00:33.541Z,82.80
2022-08-29T22:03:02.235Z,81.95
2022-08-29T22:05:31.021Z,80.29
2022-08-29T22:07:58.025Z,82.49
2022-08-29T22:10:28.718Z,83.14
2022-08-29T22:12:55.196Z,83.22
2022-08-29T22:15:40.847Z,82.15
2022-08-29T22:18:08.650Z,82.63
2022-08-29T22:20:37.606Z,82.54
2022-08-29T22:23:06.003Z,83.45
2022-08-29T22:25:32.713Z,82.72
2022-08-29T22:27:59.621Z,83.14
2022-08-29T22:30:32.053Z,81.86
2022-08-29T22:33:00.311Z,82.33
2022-08-29T22:35:27.893Z,83.33
2022-08-29T22:37:54.594Z,82.89
2022-08-29T22:40:21.281Z,83.16
2022-08-29T22:42:47.799Z,82.40
2022-08-29T22:45:16.246Z,83.80
2022-08-29T22:47:44.204Z,83.86
2022-08-29T22:50:14.941Z,84.43
2022-08-29T22:52:41.616Z,84.04
2022-08-29T22:55:10.570Z,84.69
2022-08-29T22:57:37.075Z,83.98
2022-08-29T23:00:07.371Z,83.47
2022-08-29T23:02:33.865Z,82.96
2022-08-29T23:05:00.530Z,83.04
2022-08-29T23:07:26.985Z,83.06
2022-08-29T23:09:53.417Z,83.84
2022-08-29T23:12:20.153Z,84.04
2022-08-29T23:14:46.719Z,84.17
2022-08-29T23:17:14.890Z,84.73
2022-08-29T23:19:41.991Z,84.48
2022-08-29T23:22:10.654Z,84.75
2022-08-29T23:24:37.470Z,84.96
2022-08-29T23:27:04.693Z,84.50
2022-08-29T23:29:32.855Z,85.03
2022-08-29T23:32:00.691Z,85.42
2022-08-29T23:34:28.030Z,86.18
2022-08-29T23:36:54.430Z,84.93
2022-08-29T23:39:20.864Z,84.41
2022-08-29T23:41:47.273Z,83.81
2022-08-29T23:44:13.784Z,84.25
2022-08-29T23:46:40.263Z,84.44
2022-08-29T23:49:07.221Z,84.65
2022-08-29T23:51:33.795Z,85.60
2022-08-29T23:54:00.440Z,85.11
2022-08-29T23:56:27.190Z,85.96
2022-08-29T23:58:56.840Z,85.92
